• Join FlightAware (Why Join?)
  • Login
  • US Flag 
 
07:36AM EST


 

Airport Tracker/Info


-or-


 

Live Flight TrackerFlight Track Log ✈ N147SW ✈ 22-Mar-2014 ✈ MYBC / CCZ - KPIE

Flight Track Log - Related Links

Times and Time Zones

All times are in EDT time to prevent confusion due to time zone crossing. See the N147SW flight status page for this flight to view local times or setup timezone preferences in your user account.

Time Position Orientation Groundspeed Altitude Reporting Facility
EDT Latitude Longitude Course Direction KTS MPH feet Rate Location/Type
05:57PM 25.5367 -78.0194 299° West 374 430 11,700  Level Miami Center
05:58PM 25.5778 -78.1006 299° West 332 382 15,100 3,000 Climbing Miami Center
05:59PM 25.6186 -78.1864 298° West 319 367 17,800 2,580 Climbing Miami Center
06:00PM 25.6597 -78.2697 299° West 319 367 20,300 2,400 Climbing Miami Center
06:01PM 25.6771 -78.3587 301° West  Level Estimated
06:01PM 25.7028 -78.3578 299° West 319 367 22,700  Level Miami Center
06:02PM 25.7456 -78.4483 298° West 325 374 24,700 2,040 Climbing Miami Center
06:03PM 25.7906 -78.5414 298° West 330 380 26,800 1,620 Climbing Miami Center
06:04PM 25.8356 -78.6389 297° West 338 389 28,000 540 Climbing Miami Center
06:05PM 25.8883 -78.7458 299° West 357 411 28,000  Level Miami Center
06:06PM 25.9433 -78.8553 299° West 391 450 28,000  Level Miami Center
06:07PM 25.9961 -78.9719 297° West 410 472 28,000  Level Miami Center
06:08PM 26.0528 -79.0883 298° West 422 486 28,000  Level Miami Center
06:09PM 26.1094 -79.2053 298° West 427 491 28,000  Level Miami Center
06:10PM 26.1661 -79.3244 298° West 427 491 28,000  Level Miami Center
06:11PM 26.2225 -79.4414 298° West 432 497 28,000  Level Miami Center
06:12PM 26.2686 -79.5467 296° West 427 491 28,000  Level Miami Center
06:13PM 26.3289 -79.6756 298° West 427 491 28,000  Level Miami Center
06:14PM 26.3792 -79.7811 298° West 427 491 28,000  Level Miami Center
06:15PM 26.4392 -79.9125 297° West 422 486 28,000  Level Miami Center
06:16PM 26.4892 -80.0158 298° West 422 486 28,000  Level Miami Center
06:17PM 26.5469 -80.1428 297° West 422 486 28,000  Level Miami Center
06:18PM 26.6006 -80.2581 297° West 422 486 28,000  Level Miami Center
06:19PM 26.6503 -80.3642 298° West 417 480 28,000  Level Miami Center
06:20PM 26.7078 -80.4914 297° West 417 480 28,000  Level Miami Center
06:21PM 26.7553 -80.5953 297° West 417 480 28,000  Level Miami Center
06:22PM 26.8086 -80.7086 298° West 412 474 28,000  Level Miami Center
06:23PM 26.8619 -80.8244 297° West 412 474 28,000  Level Miami Center
06:24PM 26.9131 -80.9403 296° West 412 474 28,000  Level Miami Center
06:25PM 26.9700 -81.0633 297° West 412 474 28,000 -540 Level Miami Center
06:26PM 27.0231 -81.1794 297° West 413 475 27,000 -1,320 Descending Miami Center
06:27PM 27.0717 -81.2908 296° West 419 482 25,400 -1,800 Descending Miami Center
06:28PM 27.1267 -81.4097 297° West 424 488 23,400 -1,980 Descending Miami Center
06:29PM 27.1872 -81.5406 298° West 430 495 21,100 -2,160 Descending Miami Center
06:30PM 27.2494 -81.6783 297° West 418 481 18,800 -2,040 Descending Miami Center
06:31PM 27.2939 -81.7783 297° West 412 474 17,000 -1,800 Descending Miami Center
06:32PM 27.3406 -81.8856 296° West 399 459 15,200 -1,920 Descending Miami Center
06:33PM 27.3889 -81.9953 296° West 394 453 13,300 -1,920 Descending Miami Center
06:34PM 27.4428 -82.1144 297° West 394 453 11,400 -1,200 Descending Miami Center
06:35PM 27.5083 -82.2064 309° West 389 448 11,000 -360 Descending Miami Center
06:36PM 27.5739 -82.2986 309° West 379 436 10,700 -600 Descending Miami Center
06:37PM 27.5658 -82.3986 265° West 336 387 9,800 -1,680 Descending Miami Center
06:38PM 27.5542 -82.4825 261° West 303 349 7,400 -2,400 Descending Miami Center
06:39PM 27.5428 -82.5614 261° West 277 319 5,000 -1,860 Descending Miami Center
06:40PM 27.6061 -82.5975 333° Northwest 213 245 3,700 -1,140 Descending Miami Center
06:41PM 27.6781 -82.6222 343° North 226 260 2,800 -840 Descending Miami Center
06:42PM 27.7458 -82.6467 342° North 244 281 2,100 -540 Descending Miami Center
06:43PM 27.8056 -82.6683 342° North 244 281 1,800 -480 Descending Miami Center
06:44PM 27.8333 -82.6833 334° Northwest 197 227 1,400 -960 Descending Tampa TRACON
06:45PM 27.8833 -82.6833 360° North 167 192 400 -1,020 Descending Tampa TRACON
06:47PM 27.9000 -82.6833 344° North  Level FlightAware Approximate
06:54PM 27.9100 -82.6875 340° North  Level Estimated